createdAt,value
2023-01-25T00:01:04.342Z,88.41
2023-01-25T00:04:06.976Z,89.37
2023-01-25T00:07:09.657Z,89.38
2023-01-25T00:10:12.681Z,89.29
2023-01-25T00:13:15.683Z,89.32
2023-01-25T00:16:18.310Z,89.26
2023-01-25T00:19:20.927Z,90.14
2023-01-25T00:22:23.352Z,89.94
2023-01-25T00:25:25.871Z,89.92
2023-01-25T00:28:28.630Z,89.41
2023-01-25T00:31:34.512Z,89.57
2023-01-25T00:34:48.285Z,89.57
2023-01-25T00:37:53.229Z,90.10
2023-01-25T00:40:57.500Z,89.85
2023-01-25T00:44:00.047Z,90.78
2023-01-25T00:47:03.739Z,91.09
2023-01-25T00:50:08.368Z,90.73
2023-01-25T00:53:11.197Z,91.37
2023-01-25T00:56:14.038Z,90.88
2023-01-25T00:59:16.694Z,90.94
2023-01-25T01:02:19.691Z,90.42
2023-01-25T01:05:22.216Z,90.42
2023-01-25T01:08:25.096Z,90.06
2023-01-25T01:11:28.770Z,90.51
2023-01-25T01:14:32.975Z,90.19
2023-01-25T01:17:35.466Z,89.41
2023-01-25T01:20:39.191Z,89.13
2023-01-25T01:23:41.884Z,89.18
2023-01-25T01:26:44.577Z,89.51
2023-01-25T01:29:47.386Z,90.06
2023-01-25T01:32:51.703Z,90.61
2023-01-25T01:35:54.382Z,90.65
2023-01-25T01:38:59.120Z,89.95
2023-01-25T01:42:01.972Z,90.08
2023-01-25T01:45:42.878Z,89.66
2023-01-25T01:48:51.326Z,90.03
2023-01-25T01:52:01.947Z,90.13
2023-01-25T01:55:18.775Z,90.30
2023-01-25T01:58:22.979Z,89.99
2023-01-25T02:01:27.753Z,90.00
2023-01-25T02:04:31.026Z,90.18
2023-01-25T02:07:37.161Z,90.20
2023-01-25T02:10:43.050Z,90.67
2023-01-25T02:13:47.240Z,90.40
2023-01-25T02:16:51.630Z,89.90
2023-01-25T02:20:09.281Z,90.05
2023-01-25T02:23:55.754Z,90.37
2023-01-25T02:26:58.405Z,91.07
2023-01-25T02:30:01.262Z,91.22
2023-01-25T02:33:04.206Z,91.45
2023-01-25T02:36:06.751Z,91.57
2023-01-25T02:39:17.335Z,91.21
2023-01-25T02:42:21.276Z,91.00
2023-01-25T02:45:29.570Z,91.15
2023-01-25T02:48:32.002Z,90.42
2023-01-25T02:51:40.076Z,89.91
2023-01-25T02:54:42.541Z,90.06
2023-01-25T02:57:45.276Z,90.23
2023-01-25T03:00:54.656Z,90.49
2023-01-25T03:03:57.261Z,90.42
2023-01-25T03:06:59.830Z,90.88
2023-01-25T03:10:04.018Z,90.73
2023-01-25T03:13:07.841Z,90.40
2023-01-25T03:16:12.989Z,90.36
2023-01-25T03:19:17.714Z,90.21
2023-01-25T03:22:20.681Z,90.03
2023-01-25T03:25:25.386Z,89.79
2023-01-25T03:28:35.420Z,90.11
2023-01-25T03:31:38.603Z,90.17
2023-01-25T03:34:41.114Z,89.81
2023-01-25T03:37:44.007Z,89.93
2023-01-25T03:40:47.689Z,89.93
2023-01-25T03:43:50.408Z,89.79
2023-01-25T03:46:53.777Z,89.94
2023-01-25T03:49:56.821Z,89.81
2023-01-25T03:53:07.212Z,90.00
2023-01-25T03:56:19.895Z,89.73
2023-01-25T03:59:33.428Z,90.04
2023-01-25T04:02:35.927Z,90.29
2023-01-25T04:05:39.170Z,90.25
2023-01-25T04:08:41.691Z,90.35
2023-01-25T04:11:44.988Z,90.57
2023-01-25T04:14:48.844Z,90.77
2023-01-25T04:17:57.129Z,90.14
2023-01-25T04:21:01.451Z,89.97
2023-01-25T04:24:04.392Z,89.75
2023-01-25T04:27:11.319Z,89.76
2023-01-25T04:30:22.270Z,89.47
2023-01-25T04:33:26.646Z,89.14
2023-01-25T04:36:29.107Z,89.14
2023-01-25T04:39:31.692Z,89.25
2023-01-25T04:42:34.547Z,89.34
2023-01-25T04:45:37.165Z,89.57
2023-01-25T04:48:44.908Z,89.51
2023-01-25T04:51:48.324Z,89.65
2023-01-25T04:54:50.833Z,89.57
2023-01-25T04:57:53.374Z,90.01
2023-01-25T05:01:00.969Z,89.34
2023-01-25T05:04:03.708Z,89.60
2023-01-25T05:07:12.575Z,89.09
2023-01-25T05:10:15.754Z,89.58
2023-01-25T05:13:35.855Z,89.74
2023-01-25T05:16:47.957Z,90.24
2023-01-25T05:19:51.107Z,90.19
2023-01-25T05:22:57.932Z,90.02
2023-01-25T05:26:18.910Z,89.63
2023-01-25T05:29:21.956Z,89.83
2023-01-25T05:32:35.929Z,90.15
2023-01-25T05:35:39.088Z,89.46
2023-01-25T05:38:41.798Z,89.60
2023-01-25T05:41:45.769Z,89.50
2023-01-25T05:44:48.535Z,89.25
2023-01-25T05:47:54.286Z,89.55
2023-01-25T05:50:58.363Z,89.76
2023-01-25T05:54:00.907Z,89.51
2023-01-25T05:57:03.875Z,89.17
2023-01-25T06:00:07.394Z,89.27
2023-01-25T06:03:15.883Z,89.71
2023-01-25T06:06:19.273Z,89.71
2023-01-25T06:09:23.523Z,89.79
2023-01-25T06:12:29.399Z,89.86
2023-01-25T06:15:33.254Z,89.98
2023-01-25T06:18:56.032Z,90.87
2023-01-25T06:22:21.701Z,91.04
2023-01-25T06:25:24.330Z,91.01
2023-01-25T06:28:30.802Z,91.21
2023-01-25T06:31:34.818Z,91.05
2023-01-25T06:34:37.663Z,91.02
2023-01-25T06:37:40.454Z,90.52
2023-01-25T06:40:43.354Z,89.72
2023-01-25T06:43:46.910Z,89.36
2023-01-25T06:46:49.547Z,89.26
2023-01-25T06:49:52.080Z,89.15
2023-01-25T06:52:55.666Z,88.92
2023-01-25T06:56:11.797Z,88.39
2023-01-25T06:59:16.077Z,89.01
2023-01-25T07:02:18.566Z,88.23
2023-01-25T07:05:21.075Z,88.24
2023-01-25T07:08:23.784Z,88.16
2023-01-25T07:11:26.727Z,88.25
2023-01-25T07:14:31.024Z,87.68
2023-01-25T07:17:33.564Z,87.96
2023-01-25T07:20:37.524Z,87.40
2023-01-25T07:23:41.623Z,87.50
2023-01-25T07:26:44.538Z,87.48
2023-01-25T07:29:47.310Z,87.23
2023-01-25T07:32:49.774Z,87.55
2023-01-25T07:35:52.241Z,87.30
2023-01-25T07:38:56.170Z,87.54
2023-01-25T07:41:58.889Z,87.58
2023-01-25T07:45:08.580Z,87.41
2023-01-25T07:48:11.378Z,87.25
2023-01-25T07:51:22.885Z,86.74
2023-01-25T07:54:25.607Z,86.96
2023-01-25T07:57:31.182Z,87.22
2023-01-25T08:00:33.842Z,87.19
2023-01-25T08:03:36.594Z,86.74
2023-01-25T08:06:39.481Z,86.81
2023-01-25T08:09:42.599Z,86.34
2023-01-25T08:12:46.561Z,86.38
2023-01-25T08:15:55.868Z,86.12
2023-01-25T08:19:00.303Z,86.03
2023-01-25T08:22:02.818Z,86.05
2023-01-25T08:25:05.732Z,85.96
2023-01-25T08:28:08.352Z,85.74
2023-01-25T08:31:19.193Z,86.08
2023-01-25T08:34:21.709Z,85.05
2023-01-25T08:37:24.313Z,84.96
2023-01-25T08:40:27.698Z,84.39
2023-01-25T08:43:30.221Z,83.99
2023-01-25T08:46:34.000Z,82.76
2023-01-25T08:49:36.560Z,82.00
2023-01-25T08:52:39.423Z,81.73
2023-01-25T08:55:43.240Z,80.35
2023-01-25T08:58:48.449Z,80.83
2023-01-25T09:01:50.965Z,78.91
2023-01-25T09:04:53.684Z,78.11
2023-01-25T09:07:56.174Z,77.51
2023-01-25T09:11:03.590Z,76.76
2023-01-25T09:14:06.615Z,76.41
2023-01-25T09:17:09.833Z,75.67
2023-01-25T09:20:12.646Z,74.79
2023-01-25T09:23:15.565Z,75.13
2023-01-25T09:26:18.946Z,74.28
2023-01-25T09:29:21.511Z,73.74
2023-01-25T09:32:24.440Z,74.70
2023-01-25T09:35:29.727Z,74.84
2023-01-25T09:38:32.691Z,74.77
2023-01-25T09:41:40.994Z,75.21
2023-01-25T09:45:04.643Z,75.74
2023-01-25T09:48:22.294Z,75.81
2023-01-25T09:51:51.913Z,76.46
2023-01-25T09:54:54.540Z,78.27
2023-01-25T09:58:00.866Z,76.94
2023-01-25T10:01:41.047Z,76.81
2023-01-25T10:04:46.049Z,77.70
2023-01-25T10:08:17.875Z,76.96
2023-01-25T10:11:25.874Z,77.00
2023-01-25T10:14:33.409Z,77.37
2023-01-25T10:17:40.046Z,77.21
2023-01-25T10:20:53.195Z,76.88
2023-01-25T10:24:08.353Z,77.21
2023-01-25T10:27:23.672Z,76.88
2023-01-25T10:30:29.733Z,76.71
2023-01-25T10:33:38.717Z,75.97
2023-01-25T10:36:42.519Z,76.68
2023-01-25T10:40:14.602Z,76.41
2023-01-25T10:43:20.341Z,76.91
2023-01-25T10:46:26.363Z,76.70
2023-01-25T10:49:44.248Z,76.23
2023-01-25T10:52:58.335Z,76.24
2023-01-25T10:56:24.378Z,76.17
2023-01-25T10:59:28.988Z,75.79
2023-01-25T11:03:01.052Z,75.10
2023-01-25T11:06:04.425Z,74.24
2023-01-25T11:09:21.898Z,74.10
2023-01-25T11:12:24.420Z,73.65
2023-01-25T11:15:27.041Z,73.84
2023-01-25T11:18:33.848Z,73.63
2023-01-25T11:21:36.345Z,73.56
2023-01-25T11:24:39.401Z,72.69
2023-01-25T11:27:42.001Z,72.23
2023-01-25T11:30:45.763Z,72.48
2023-01-25T11:33:48.450Z,71.51
2023-01-25T11:37:18.396Z,70.41
2023-01-25T11:41:02.372Z,71.73
2023-01-25T11:44:33.822Z,70.84
2023-01-25T11:48:03.986Z,68.86
2023-01-25T11:51:14.099Z,70.02
2023-01-25T11:54:32.874Z,71.34
2023-01-25T11:57:54.028Z,71.63
2023-01-25T12:01:14.883Z,71.69
2023-01-25T12:04:50.871Z,71.48
2023-01-25T12:08:27.027Z,71.18
2023-01-25T12:11:32.225Z,71.00
2023-01-25T12:14:56.222Z,71.25
2023-01-25T12:18:11.187Z,71.18
2023-01-25T12:21:40.190Z,70.98
2023-01-25T12:25:03.372Z,71.23
2023-01-25T12:28:21.281Z,72.00
2023-01-25T12:31:29.499Z,72.51
2023-01-25T12:34:40.956Z,71.75
2023-01-25T12:37:46.277Z,70.44
2023-01-25T12:41:00.177Z,70.01
2023-01-25T12:44:23.009Z,70.64
2023-01-25T12:48:03.275Z,70.69
2023-01-25T12:51:05.789Z,70.57
2023-01-25T12:54:23.403Z,70.36
2023-01-25T12:57:47.547Z,70.69
2023-01-25T13:01:12.002Z,70.78
2023-01-25T13:04:51.354Z,70.06
2023-01-25T13:08:31.824Z,69.91
2023-01-25T13:11:41.138Z,70.48
2023-01-25T13:14:44.143Z,70.46
2023-01-25T13:17:46.687Z,70.01
2023-01-25T13:20:53.875Z,69.86
2023-01-25T13:24:11.588Z,69.39
2023-01-25T13:27:36.567Z,69.28
2023-01-25T13:30:52.139Z,69.03
2023-01-25T13:33:54.598Z,69.62
2023-01-25T13:36:57.425Z,70.27
2023-01-25T13:40:32.757Z,70.29
2023-01-25T13:43:35.343Z,70.83
2023-01-25T13:46:38.091Z,71.50
2023-01-25T13:49:42.128Z,71.14
2023-01-25T13:53:02.402Z,71.04
2023-01-25T13:56:05.434Z,70.77
2023-01-25T13:59:26.936Z,70.78
2023-01-25T14:02:35.096Z,70.38
2023-01-25T14:05:37.556Z,70.36
2023-01-25T14:08:40.723Z,71.16
2023-01-25T14:11:55.895Z,71.07
2023-01-25T14:15:10.055Z,71.39
2023-01-25T14:18:19.434Z,71.24
2023-01-25T14:21:22.787Z,71.38
2023-01-25T14:24:25.334Z,72.02
2023-01-25T14:27:27.873Z,72.17
2023-01-25T14:30:34.777Z,72.33
2023-01-25T14:33:40.376Z,72.34
2023-01-25T14:36:42.863Z,72.69
2023-01-25T14:39:46.592Z,72.71
2023-01-25T14:42:51.178Z,73.03
2023-01-25T14:45:54.057Z,72.65
2023-01-25T14:49:11.769Z,72.74
2023-01-25T14:52:19.500Z,72.70
2023-01-25T14:55:22.232Z,73.56
2023-01-25T14:58:29.079Z,73.47
2023-01-25T15:01:38.120Z,73.45
2023-01-25T15:04:55.785Z,73.38
2023-01-25T15:08:15.594Z,73.54
2023-01-25T15:11:49.016Z,73.30
2023-01-25T15:14:56.480Z,73.65
2023-01-25T15:17:59.980Z,73.29
2023-01-25T15:21:03.603Z,73.76
2023-01-25T15:24:12.225Z,73.39
2023-01-25T15:27:14.806Z,73.31
2023-01-25T15:30:19.250Z,73.61
2023-01-25T15:33:28.742Z,73.31
2023-01-25T15:36:32.880Z,73.17
2023-01-25T15:39:35.889Z,73.47
2023-01-25T15:42:38.802Z,73.61
2023-01-25T15:45:46.391Z,74.04
2023-01-25T15:48:50.149Z,74.29
2023-01-25T15:51:54.083Z,74.40
2023-01-25T15:55:01.869Z,74.06
2023-01-25T15:58:05.280Z,74.16
2023-01-25T16:01:08.140Z,74.93
2023-01-25T16:04:13.703Z,74.73
2023-01-25T16:07:24.783Z,75.25
2023-01-25T16:10:27.885Z,75.39
2023-01-25T16:13:30.309Z,75.56
2023-01-25T16:16:37.354Z,75.39
2023-01-25T16:19:39.796Z,75.94
2023-01-25T16:22:42.490Z,75.93
2023-01-25T16:25:48.429Z,77.14
2023-01-25T16:28:51.052Z,77.13
2023-01-25T16:31:55.755Z,76.87
2023-01-25T16:34:58.796Z,76.40
2023-01-25T16:38:01.581Z,76.17
2023-01-25T16:41:05.038Z,76.27
2023-01-25T16:44:07.726Z,75.72
2023-01-25T16:47:14.702Z,75.32
2023-01-25T16:50:19.003Z,74.74
2023-01-25T16:53:21.567Z,74.87
2023-01-25T16:56:27.535Z,74.58
2023-01-25T16:59:30.760Z,74.48
2023-01-25T17:02:33.565Z,74.29
2023-01-25T17:05:38.361Z,73.70
2023-01-25T17:08:41.105Z,73.63
2023-01-25T17:11:44.070Z,73.76
2023-01-25T17:14:46.666Z,74.39
2023-01-25T17:17:49.232Z,74.88
2023-01-25T17:21:01.918Z,75.19
2023-01-25T17:24:04.843Z,75.73
2023-01-25T17:27:07.604Z,75.88
2023-01-25T17:30:12.298Z,75.86
2023-01-25T17:33:16.424Z,75.38
2023-01-25T17:36:19.985Z,75.07
2023-01-25T17:39:23.442Z,75.89
2023-01-25T17:42:26.377Z,75.51
2023-01-25T17:45:29.410Z,74.84
2023-01-25T17:48:32.266Z,74.98
2023-01-25T17:51:36.656Z,75.41
2023-01-25T17:54:40.195Z,75.22
2023-01-25T17:57:43.540Z,75.28
2023-01-25T18:00:47.309Z,76.11
2023-01-25T18:03:52.404Z,76.08
2023-01-25T18:06:55.232Z,76.48
2023-01-25T18:09:57.862Z,76.38
2023-01-25T18:13:04.945Z,76.22
2023-01-25T18:16:10.052Z,76.49
2023-01-25T18:19:13.431Z,76.86
2023-01-25T18:22:16.276Z,76.69
2023-01-25T18:25:36.212Z,76.85
2023-01-25T18:28:38.900Z,77.03
2023-01-25T18:31:42.377Z,76.97
2023-01-25T18:34:46.888Z,76.75
2023-01-25T18:37:49.751Z,76.31
2023-01-25T18:40:53.450Z,76.17
2023-01-25T18:43:56.869Z,76.04
2023-01-25T18:46:59.659Z,76.63
2023-01-25T18:50:02.792Z,76.66
2023-01-25T18:53:05.815Z,76.48
2023-01-25T18:56:17.564Z,76.58
2023-01-25T18:59:20.284Z,76.82
2023-01-25T19:02:24.170Z,76.58
2023-01-25T19:05:27.879Z,76.88
2023-01-25T19:08:36.456Z,77.94
2023-01-25T19:11:39.514Z,77.70
2023-01-25T19:14:42.419Z,77.62
2023-01-25T19:17:45.233Z,77.95
2023-01-25T19:20:50.351Z,77.97
2023-01-25T19:23:54.789Z,77.68
2023-01-25T19:26:57.729Z,77.85
2023-01-25T19:30:00.791Z,77.22
2023-01-25T19:33:03.512Z,77.32
2023-01-25T19:36:09.173Z,76.94
2023-01-25T19:39:12.376Z,77.12
2023-01-25T19:42:18.399Z,77.04
2023-01-25T19:45:21.439Z,76.93
2023-01-25T19:48:23.978Z,77.00
2023-01-25T19:51:32.105Z,77.02
2023-01-25T19:54:35.316Z,76.86
2023-01-25T19:57:38.505Z,77.01
2023-01-25T20:00:43.744Z,77.18
2023-01-25T20:03:47.418Z,77.01
2023-01-25T20:06:50.906Z,77.08
2023-01-25T20:09:53.733Z,77.09
2023-01-25T20:12:57.479Z,77.10
2023-01-25T20:16:00.367Z,76.69
2023-01-25T20:19:03.762Z,76.36
2023-01-25T20:22:06.956Z,76.60
2023-01-25T20:25:10.125Z,77.09
2023-01-25T20:28:13.218Z,77.05
2023-01-25T20:31:35.001Z,77.17
2023-01-25T20:34:38.088Z,77.16
2023-01-25T20:37:40.907Z,77.54
2023-01-25T20:40:43.702Z,78.19
2023-01-25T20:43:48.358Z,78.20
2023-01-25T20:46:51.758Z,78.28
2023-01-25T20:49:55.654Z,78.14
2023-01-25T20:52:59.036Z,78.60
2023-01-25T20:56:01.620Z,78.40
2023-01-25T20:59:04.516Z,77.75
2023-01-25T21:02:10.655Z,78.12
2023-01-25T21:05:13.616Z,78.42
2023-01-25T21:08:17.234Z,78.00
2023-01-25T21:11:20.365Z,79.00
2023-01-25T21:14:23.451Z,79.61
2023-01-25T21:17:26.324Z,79.63
2023-01-25T21:20:31.784Z,79.76
2023-01-25T21:23:35.593Z,79.89
2023-01-25T21:26:38.597Z,79.92
2023-01-25T21:29:41.346Z,79.94
2023-01-25T21:32:44.219Z,80.58
2023-01-25T21:35:47.020Z,80.49
2023-01-25T21:38:51.354Z,80.23
2023-01-25T21:41:53.831Z,80.15
2023-01-25T21:45:15.394Z,80.18
2023-01-25T21:48:37.865Z,80.69
2023-01-25T21:51:50.777Z,80.31
2023-01-25T21:54:53.265Z,80.84
2023-01-25T21:57:55.702Z,81.17
2023-01-25T22:01:02.152Z,81.15
2023-01-25T22:04:06.069Z,80.78
2023-01-25T22:07:09.351Z,80.79
2023-01-25T22:10:12.125Z,80.88
2023-01-25T22:13:14.830Z,80.75
2023-01-25T22:16:17.304Z,80.46
2023-01-25T22:19:19.857Z,80.67
2023-01-25T22:22:22.630Z,80.87
2023-01-25T22:25:25.239Z,81.06
2023-01-25T22:28:28.236Z,81.71
2023-01-25T22:31:31.850Z,81.92
2023-01-25T22:34:34.429Z,81.45
2023-01-25T22:37:38.130Z,81.89
2023-01-25T22:40:41.199Z,81.42
2023-01-25T22:43:44.368Z,81.27
2023-01-25T22:46:47.424Z,81.22
2023-01-25T22:49:50.178Z,81.32
2023-01-25T22:52:52.671Z,81.27
2023-01-25T22:56:06.289Z,81.29
2023-01-25T22:59:11.585Z,81.55
2023-01-25T23:02:14.060Z,81.48
2023-01-25T23:05:16.647Z,81.33
2023-01-25T23:08:19.210Z,80.90
2023-01-25T23:11:24.260Z,81.12
2023-01-25T23:14:46.988Z,80.91
2023-01-25T23:18:08.039Z,81.02
2023-01-25T23:21:11.874Z,81.30
2023-01-25T23:24:14.594Z,81.28
2023-01-25T23:27:17.051Z,80.97
2023-01-25T23:30:20.063Z,80.57
2023-01-25T23:33:22.519Z,80.37
2023-01-25T23:36:28.393Z,80.83
2023-01-25T23:39:30.899Z,81.45
2023-01-25T23:42:33.388Z,81.84
2023-01-25T23:45:35.915Z,81.63
2023-01-25T23:48:38.550Z,81.08
2023-01-25T23:51:41.239Z,81.03
2023-01-25T23:54:43.695Z,81.60
2023-01-25T23:57:46.137Z,81.96
